sensor_id;sensor_type;location;lat;lon;timestamp;pressure;altitude;pressure_sealevel;temperature
64488;BMP280;50864;45.050;39.014;2022-12-10T00:01:48;101686.50;;;6.98
64488;BMP280;50864;45.050;39.014;2022-12-10T00:04:14;101671.56;;;6.97
64488;BMP280;50864;45.050;39.014;2022-12-10T00:06:41;101678.41;;;6.93
64488;BMP280;50864;45.050;39.014;2022-12-10T00:09:11;101671.47;;;6.92
64488;BMP280;50864;45.050;39.014;2022-12-10T00:11:39;101676.22;;;6.90
64488;BMP280;50864;45.050;39.014;2022-12-10T00:14:05;101679.34;;;6.87
64488;BMP280;50864;45.050;39.014;2022-12-10T00:16:33;101676.09;;;6.85
64488;BMP280;50864;45.050;39.014;2022-12-10T00:19:00;101684.31;;;6.83
64488;BMP280;50864;45.050;39.014;2022-12-10T00:21:28;101689.88;;;6.82
64488;BMP280;50864;45.050;39.014;2022-12-10T00:23:55;101684.19;;;6.78
64488;BMP280;50864;45.050;39.014;2022-12-10T00:26:27;101676.66;;;6.75
64488;BMP280;50864;45.050;39.014;2022-12-10T00:28:54;101684.09;;;6.73
64488;BMP280;50864;45.050;39.014;2022-12-10T00:31:24;101681.66;;;6.72
64488;BMP280;50864;45.050;39.014;2022-12-10T00:33:53;101678.19;;;6.71
64488;BMP280;50864;45.050;39.014;2022-12-10T00:36:23;101674.25;;;6.74
64488;BMP280;50864;45.050;39.014;2022-12-10T00:38:50;101674.59;;;6.77
64488;BMP280;50864;45.050;39.014;2022-12-10T00:41:17;101673.09;;;6.81
64488;BMP280;50864;45.050;39.014;2022-12-10T00:43:43;101667.06;;;6.86
64488;BMP280;50864;45.050;39.014;2022-12-10T00:46:11;101666.16;;;6.92
64488;BMP280;50864;45.050;39.014;2022-12-10T00:48:40;101671.00;;;6.95
64488;BMP280;50864;45.050;39.014;2022-12-10T00:51:21;101665.22;;;6.98
64488;BMP280;50864;45.050;39.014;2022-12-10T00:53:50;101658.16;;;7.04
64488;BMP280;50864;45.050;39.014;2022-12-10T00:56:19;101661.16;;;7.07
64488;BMP280;50864;45.050;39.014;2022-12-10T00:58:46;101654.53;;;7.10
64488;BMP280;50864;45.050;39.014;2022-12-10T01:01:28;101659.97;;;7.15
64488;BMP280;50864;45.050;39.014;2022-12-10T01:04:01;101653.69;;;7.21
64488;BMP280;50864;45.050;39.014;2022-12-10T01:06:31;101669.00;;;7.25
64488;BMP280;50864;45.050;39.014;2022-12-10T01:09:00;101662.69;;;7.32
64488;BMP280;50864;45.050;39.014;2022-12-10T01:11:30;101666.53;;;7.36
64488;BMP280;50864;45.050;39.014;2022-12-10T01:13:56;101662.34;;;7.40
64488;BMP280;50864;45.050;39.014;2022-12-10T01:16:23;101660.00;;;7.43
64488;BMP280;50864;45.050;39.014;2022-12-10T01:18:52;101662.78;;;7.48
64488;BMP280;50864;45.050;39.014;2022-12-10T01:21:19;101655.44;;;7.55
64488;BMP280;50864;45.050;39.014;2022-12-10T01:23:47;101652.66;;;7.62
64488;BMP280;50864;45.050;39.014;2022-12-10T01:26:20;101651.66;;;7.68
64488;BMP280;50864;45.050;39.014;2022-12-10T01:28:48;101657.13;;;7.73
64488;BMP280;50864;45.050;39.014;2022-12-10T01:31:27;101653.47;;;7.79
64488;BMP280;50864;45.050;39.014;2022-12-10T01:33:53;101652.78;;;7.84
64488;BMP280;50864;45.050;39.014;2022-12-10T01:36:27;101657.66;;;7.87
64488;BMP280;50864;45.050;39.014;2022-12-10T01:38:53;101652.62;;;7.90
64488;BMP280;50864;45.050;39.014;2022-12-10T01:41:25;101657.47;;;7.93
64488;BMP280;50864;45.050;39.014;2022-12-10T01:46:28;101657.06;;;8.01
64488;BMP280;50864;45.050;39.014;2022-12-10T01:48:56;101652.88;;;8.05
64488;BMP280;50864;45.050;39.014;2022-12-10T01:51:24;101652.41;;;8.08
64488;BMP280;50864;45.050;39.014;2022-12-10T01:53:50;101657.25;;;8.12
64488;BMP280;50864;45.050;39.014;2022-12-10T01:56:18;101650.41;;;8.16
64488;BMP280;50864;45.050;39.014;2022-12-10T01:58:45;101657.09;;;8.18
64488;BMP280;50864;45.050;39.014;2022-12-10T02:07:06;101651.59;;;8.25
64488;BMP280;50864;45.050;39.014;2022-12-10T02:09:42;101655.88;;;8.26
64488;BMP280;50864;45.050;39.014;2022-12-10T02:12:16;101660.16;;;8.27
64488;BMP280;50864;45.050;39.014;2022-12-10T02:15:10;101664.47;;;8.28
64488;BMP280;50864;45.050;39.014;2022-12-10T02:20:32;101660.41;;;8.25
64488;BMP280;50864;45.050;39.014;2022-12-10T02:23:42;101662.03;;;8.26
64488;BMP280;50864;45.050;39.014;2022-12-10T02:26:41;101665.50;;;8.27
64488;BMP280;50864;45.050;39.014;2022-12-10T02:29:14;101655.88;;;8.26
64488;BMP280;50864;45.050;39.014;2022-12-10T02:31:49;101659.59;;;8.25
64488;BMP280;50864;45.050;39.014;2022-12-10T02:34:19;101657.50;;;8.27
64488;BMP280;50864;45.050;39.014;2022-12-10T02:36:51;101658.88;;;8.29
64488;BMP280;50864;45.050;39.014;2022-12-10T02:39:21;101654.88;;;8.32
64488;BMP280;50864;45.050;39.014;2022-12-10T02:41:53;101663.47;;;8.34
64488;BMP280;50864;45.050;39.014;2022-12-10T02:44:21;101665.66;;;8.37
64488;BMP280;50864;45.050;39.014;2022-12-10T02:46:53;101660.91;;;8.39
64488;BMP280;50864;45.050;39.014;2022-12-10T02:49:24;101664.09;;;8.41
64488;BMP280;50864;45.050;39.014;2022-12-10T02:51:52;101667.34;;;8.43
64488;BMP280;50864;45.050;39.014;2022-12-10T02:54:52;101669.22;;;8.42
64488;BMP280;50864;45.050;39.014;2022-12-10T02:57:45;101660.94;;;8.44
64488;BMP280;50864;45.050;39.014;2022-12-10T03:00:21;101662.78;;;8.43
64488;BMP280;50864;45.050;39.014;2022-12-10T03:08:22;101664.41;;;8.44
64488;BMP280;50864;45.050;39.014;2022-12-10T03:11:18;101657.72;;;8.42
64488;BMP280;50864;45.050;39.014;2022-12-10T03:16:23;101650.03;;;8.45
64488;BMP280;50864;45.050;39.014;2022-12-10T03:18:55;101653.28;;;8.47
64488;BMP280;50864;45.050;39.014;2022-12-10T03:21:22;101659.66;;;8.46
64488;BMP280;50864;45.050;39.014;2022-12-10T03:23:50;101655.13;;;8.47
64488;BMP280;50864;45.050;39.014;2022-12-10T03:26:18;101657.81;;;8.47
64488;BMP280;50864;45.050;39.014;2022-12-10T03:28:50;101652.00;;;8.50
64488;BMP280;50864;45.050;39.014;2022-12-10T03:31:18;101652.53;;;8.52
64488;BMP280;50864;45.050;39.014;2022-12-10T03:33:47;101645.34;;;8.53
64488;BMP280;50864;45.050;39.014;2022-12-10T03:36:13;101646.72;;;8.55
64488;BMP280;50864;45.050;39.014;2022-12-10T03:38:40;101649.12;;;8.57
64488;BMP280;50864;45.050;39.014;2022-12-10T03:41:10;101646.22;;;8.58
64488;BMP280;50864;45.050;39.014;2022-12-10T03:43:52;101640.37;;;8.61
64488;BMP280;50864;45.050;39.014;2022-12-10T03:46:19;101637.25;;;8.64
64488;BMP280;50864;45.050;39.014;2022-12-10T03:48:45;101646.06;;;8.65
64488;BMP280;50864;45.050;39.014;2022-12-10T03:51:11;101640.47;;;8.66
64488;BMP280;50864;45.050;39.014;2022-12-10T03:53:37;101632.22;;;8.68
64488;BMP280;50864;45.050;39.014;2022-12-10T03:56:03;101634.91;;;8.68
64488;BMP280;50864;45.050;39.014;2022-12-10T03:58:29;101637.56;;;8.68
64488;BMP280;50864;45.050;39.014;2022-12-10T04:00:56;101641.84;;;8.69
64488;BMP280;50864;45.050;39.014;2022-12-10T04:03:23;101632.50;;;8.71
64488;BMP280;50864;45.050;39.014;2022-12-10T04:05:49;101635.97;;;8.72
64488;BMP280;50864;45.050;39.014;2022-12-10T04:08:16;101632.50;;;8.71
64488;BMP280;50864;45.050;39.014;2022-12-10T04:10:43;101626.34;;;8.71
64488;BMP280;50864;45.050;39.014;2022-12-10T04:13:08;101633.59;;;8.70
64488;BMP280;50864;45.050;39.014;2022-12-10T04:15:53;101633.06;;;8.73
64488;BMP280;50864;45.050;39.014;2022-12-10T04:18:40;101635.75;;;8.73
64488;BMP280;50864;45.050;39.014;2022-12-10T04:21:06;101625.31;;;8.72
64488;BMP280;50864;45.050;39.014;2022-12-10T04:23:50;101629.56;;;8.68
64488;BMP280;50864;45.050;39.014;2022-12-10T04:26:35;101632.94;;;8.63
64488;BMP280;50864;45.050;39.014;2022-12-10T04:29:27;101629.41;;;8.58
64488;BMP280;50864;45.050;39.014;2022-12-10T04:31:55;101621.09;;;8.54
64488;BMP280;50864;45.050;39.014;2022-12-10T04:34:22;101626.66;;;8.53
64488;BMP280;50864;45.050;39.014;2022-12-10T04:36:48;101632.81;;;8.53
64488;BMP280;50864;45.050;39.014;2022-12-10T04:39:15;101630.97;;;8.54
64488;BMP280;50864;45.050;39.014;2022-12-10T04:41:43;101616.81;;;8.53
64488;BMP280;50864;45.050;39.014;2022-12-10T04:44:09;101614.13;;;8.53
64488;BMP280;50864;45.050;39.014;2022-12-10T04:46:36;101613.31;;;8.53
64488;BMP280;50864;45.050;39.014;2022-12-10T04:49:03;101618.41;;;8.54
64488;BMP280;50864;45.050;39.014;2022-12-10T04:51:30;101610.19;;;8.56
64488;BMP280;50864;45.050;39.014;2022-12-10T04:53:56;101601.59;;;8.54
64488;BMP280;50864;45.050;39.014;2022-12-10T04:56:22;101609.53;;;8.48
64488;BMP280;50864;45.050;39.014;2022-12-10T04:58:48;101610.25;;;8.44
64488;BMP280;50864;45.050;39.014;2022-12-10T05:01:15;101612.06;;;8.38
64488;BMP280;50864;45.050;39.014;2022-12-10T05:03:41;101611.97;;;8.33
64488;BMP280;50864;45.050;39.014;2022-12-10T05:06:09;101611.94;;;8.28
64488;BMP280;50864;45.050;39.014;2022-12-10T05:08:37;101621.78;;;8.28
64488;BMP280;50864;45.050;39.014;2022-12-10T05:11:14;101627.59;;;8.25
64488;BMP280;50864;45.050;39.014;2022-12-10T05:13:41;101631.31;;;8.24
64488;BMP280;50864;45.050;39.014;2022-12-10T05:16:12;101633.63;;;8.20
64488;BMP280;50864;45.050;39.014;2022-12-10T05:18:39;101630.69;;;8.17
64488;BMP280;50864;45.050;39.014;2022-12-10T05:21:07;101629.06;;;8.16
64488;BMP280;50864;45.050;39.014;2022-12-10T05:23:36;101622.91;;;8.15
64488;BMP280;50864;45.050;39.014;2022-12-10T05:28:36;101630.69;;;8.17
64488;BMP280;50864;45.050;39.014;2022-12-10T05:31:02;101627.75;;;8.18
64488;BMP280;50864;45.050;39.014;2022-12-10T05:33:29;101636.56;;;8.19
64488;BMP280;50864;45.050;39.014;2022-12-10T05:35:58;101637.09;;;8.21
64488;BMP280;50864;45.050;39.014;2022-12-10T05:38:25;101647.06;;;8.25
64488;BMP280;50864;45.050;39.014;2022-12-10T05:40:51;101640.59;;;8.38
64488;BMP280;50864;45.050;39.014;2022-12-10T05:43:17;101650.59;;;8.47
64488;BMP280;50864;45.050;39.014;2022-12-10T05:45:43;101642.91;;;8.68
64488;BMP280;50864;45.050;39.014;2022-12-10T05:48:11;101649.44;;;8.99
64488;BMP280;50864;45.050;39.014;2022-12-10T05:50:39;101648.50;;;9.31
64488;BMP280;50864;45.050;39.014;2022-12-10T05:53:05;101649.84;;;9.61
64488;BMP280;50864;45.050;39.014;2022-12-10T05:55:31;101647.97;;;9.88
64488;BMP280;50864;45.050;39.014;2022-12-10T05:57:59;101651.69;;;10.19
64488;BMP280;50864;45.050;39.014;2022-12-10T06:00:28;101650.53;;;10.52
64488;BMP280;50864;45.050;39.014;2022-12-10T06:02:55;101649.12;;;10.86
64488;BMP280;50864;45.050;39.014;2022-12-10T06:05:21;101647.34;;;11.17
64488;BMP280;50864;45.050;39.014;2022-12-10T06:07:48;101640.44;;;11.52
64488;BMP280;50864;45.050;39.014;2022-12-10T06:10:16;101643.66;;;11.84
64488;BMP280;50864;45.050;39.014;2022-12-10T06:12:42;101637.22;;;12.05
64488;BMP280;50864;45.050;39.014;2022-12-10T06:15:10;101637.72;;;12.22
64488;BMP280;50864;45.050;39.014;2022-12-10T06:17:37;101639.31;;;12.28
64488;BMP280;50864;45.050;39.014;2022-12-10T06:20:03;101648.66;;;12.41
64488;BMP280;50864;45.050;39.014;2022-12-10T06:22:29;101642.19;;;12.57
64488;BMP280;50864;45.050;39.014;2022-12-10T06:24:55;101644.25;;;12.70
64488;BMP280;50864;45.050;39.014;2022-12-10T06:27:21;101634.56;;;12.74
64488;BMP280;50864;45.050;39.014;2022-12-10T06:29:47;101628.97;;;12.66
64488;BMP280;50864;45.050;39.014;2022-12-10T06:32:13;101630.66;;;12.57
64488;BMP280;50864;45.050;39.014;2022-12-10T06:34:39;101635.47;;;12.45
64488;BMP280;50864;45.050;39.014;2022-12-10T06:37:04;101631.00;;;12.30
64488;BMP280;50864;45.050;39.014;2022-12-10T06:39:31;101635.28;;;12.26
64488;BMP280;50864;45.050;39.014;2022-12-10T06:41:56;101629.87;;;12.36
64488;BMP280;50864;45.050;39.014;2022-12-10T06:44:22;101628.84;;;12.27
64488;BMP280;50864;45.050;39.014;2022-12-10T06:46:49;101623.22;;;12.18
64488;BMP280;50864;45.050;39.014;2022-12-10T06:49:15;101625.94;;;12.08
64488;BMP280;50864;45.050;39.014;2022-12-10T06:51:41;101622.47;;;11.92
64488;BMP280;50864;45.050;39.014;2022-12-10T06:54:07;101627.84;;;11.77
64488;BMP280;50864;45.050;39.014;2022-12-10T06:56:33;101623.28;;;11.58
64488;BMP280;50864;45.050;39.014;2022-12-10T06:58:59;101628.09;;;11.45
64488;BMP280;50864;45.050;39.014;2022-12-10T07:01:25;101633.97;;;11.37
64488;BMP280;50864;45.050;39.014;2022-12-10T07:03:55;101627.81;;;11.32
64488;BMP280;50864;45.050;39.014;2022-12-10T07:06:23;101629.13;;;11.29
64488;BMP280;50864;45.050;39.014;2022-12-10T07:08:49;101638.84;;;11.51
64488;BMP280;50864;45.050;39.014;2022-12-10T07:11:18;101629.44;;;11.83
64488;BMP280;50864;45.050;39.014;2022-12-10T07:13:45;101637.97;;;12.26
64488;BMP280;50864;45.050;39.014;2022-12-10T07:16:23;101628.72;;;12.62
64488;BMP280;50864;45.050;39.014;2022-12-10T07:18:51;101641.78;;;12.84
64488;BMP280;50864;45.050;39.014;2022-12-10T07:21:32;101642.75;;;13.03
64488;BMP280;50864;45.050;39.014;2022-12-10T07:24:02;101637.56;;;13.17
64488;BMP280;50864;45.050;39.014;2022-12-10T07:26:30;101632.94;;;13.22
64488;BMP280;50864;45.050;39.014;2022-12-10T07:28:58;101631.41;;;13.50
64488;BMP280;50864;45.050;39.014;2022-12-10T07:31:24;101625.81;;;13.75
64488;BMP280;50864;45.050;39.014;2022-12-10T07:33:52;101625.94;;;13.89
64488;BMP280;50864;45.050;39.014;2022-12-10T07:36:19;101625.25;;;14.02
64488;BMP280;50864;45.050;39.014;2022-12-10T07:38:46;101619.19;;;14.15
64488;BMP280;50864;45.050;39.014;2022-12-10T07:41:12;101617.72;;;14.28
64488;BMP280;50864;45.050;39.014;2022-12-10T07:43:40;101617.19;;;14.50
64488;BMP280;50864;45.050;39.014;2022-12-10T07:46:09;101615.72;;;14.57
64488;BMP280;50864;45.050;39.014;2022-12-10T07:48:37;101606.69;;;14.67
64488;BMP280;50864;45.050;39.014;2022-12-10T07:51:03;101613.94;;;14.90
64488;BMP280;50864;45.050;39.014;2022-12-10T07:53:30;101606.63;;;15.09
64488;BMP280;50864;45.050;39.014;2022-12-10T07:55:56;101602.50;;;15.31
64488;BMP280;50864;45.050;39.014;2022-12-10T07:58:22;101603.75;;;15.38
64488;BMP280;50864;45.050;39.014;2022-12-10T08:00:48;101596.94;;;15.41
64488;BMP280;50864;45.050;39.014;2022-12-10T08:03:14;101600.97;;;15.57
64488;BMP280;50864;45.050;39.014;2022-12-10T08:05:40;101597.78;;;15.55
64488;BMP280;50864;45.050;39.014;2022-12-10T08:08:06;101598.88;;;15.54
64488;BMP280;50864;45.050;39.014;2022-12-10T08:10:36;101608.75;;;15.45
64488;BMP280;50864;45.050;39.014;2022-12-10T08:13:04;101601.31;;;15.37
64488;BMP280;50864;45.050;39.014;2022-12-10T08:15:30;101599.44;;;15.37
64488;BMP280;50864;45.050;39.014;2022-12-10T08:17:57;101605.44;;;15.48
64488;BMP280;50864;45.050;39.014;2022-12-10T08:20:24;101595.19;;;15.63
64488;BMP280;50864;45.050;39.014;2022-12-10T08:22:51;101600.19;;;15.70
64488;BMP280;50864;45.050;39.014;2022-12-10T08:25:17;101589.69;;;15.55
64488;BMP280;50864;45.050;39.014;2022-12-10T08:27:43;101592.00;;;15.61
64488;BMP280;50864;45.050;39.014;2022-12-10T08:30:10;101582.09;;;15.57
64488;BMP280;50864;45.050;39.014;2022-12-10T08:32:36;101588.84;;;15.41
64488;BMP280;50864;45.050;39.014;2022-12-10T08:35:02;101583.97;;;15.56
64488;BMP280;50864;45.050;39.014;2022-12-10T08:37:28;101590.09;;;15.76
64488;BMP280;50864;45.050;39.014;2022-12-10T08:39:54;101585.81;;;15.88
64488;BMP280;50864;45.050;39.014;2022-12-10T08:42:20;101574.31;;;16.10
64488;BMP280;50864;45.050;39.014;2022-12-10T08:44:46;101573.47;;;16.37
64488;BMP280;50864;45.050;39.014;2022-12-10T08:47:12;101568.72;;;16.56
64488;BMP280;50864;45.050;39.014;2022-12-10T08:49:38;101565.59;;;16.62
64488;BMP280;50864;45.050;39.014;2022-12-10T08:52:04;101567.22;;;16.72
64488;BMP280;50864;45.050;39.014;2022-12-10T08:54:30;101570.38;;;16.88
64488;BMP280;50864;45.050;39.014;2022-12-10T08:56:56;101572.37;;;17.04
64488;BMP280;50864;45.050;39.014;2022-12-10T08:59:21;101570.22;;;17.15
64488;BMP280;50864;45.050;39.014;2022-12-10T09:01:48;101560.59;;;17.23
64488;BMP280;50864;45.050;39.014;2022-12-10T09:04:13;101556.63;;;17.29
64488;BMP280;50864;45.050;39.014;2022-12-10T09:06:41;101560.78;;;17.35
64488;BMP280;50864;45.050;39.014;2022-12-10T09:09:07;101547.19;;;17.48
64488;BMP280;50864;45.050;39.014;2022-12-10T09:11:34;101540.56;;;17.72
64488;BMP280;50864;45.050;39.014;2022-12-10T09:14:01;101541.87;;;17.91
64488;BMP280;50864;45.050;39.014;2022-12-10T09:16:35;101536.50;;;18.00
64488;BMP280;50864;45.050;39.014;2022-12-10T09:19:03;101528.34;;;17.91
64488;BMP280;50864;45.050;39.014;2022-12-10T09:21:29;101522.13;;;17.91
64488;BMP280;50864;45.050;39.014;2022-12-10T09:23:58;101525.13;;;17.89
64488;BMP280;50864;45.050;39.014;2022-12-10T09:26:25;101517.53;;;18.08
64488;BMP280;50864;45.050;39.014;2022-12-10T09:28:52;101520.06;;;18.31
64488;BMP280;50864;45.050;39.014;2022-12-10T09:31:19;101514.50;;;18.36
64488;BMP280;50864;45.050;39.014;2022-12-10T09:33:46;101501.72;;;18.45
64488;BMP280;50864;45.050;39.014;2022-12-10T09:36:13;101504.28;;;18.58
64488;BMP280;50864;45.050;39.014;2022-12-10T09:38:41;101499.28;;;18.69
64488;BMP280;50864;45.050;39.014;2022-12-10T09:43:49;101494.19;;;18.68
64488;BMP280;50864;45.050;39.014;2022-12-10T09:49:11;101489.94;;;18.58
64488;BMP280;50864;45.050;39.014;2022-12-10T09:51:39;101482.41;;;18.55
64488;BMP280;50864;45.050;39.014;2022-12-10T09:56:45;101483.25;;;18.47
64488;BMP280;50864;45.050;39.014;2022-12-10T09:59:18;101480.53;;;18.47
64488;BMP280;50864;45.050;39.014;2022-12-10T10:01:47;101479.41;;;18.56
64488;BMP280;50864;45.050;39.014;2022-12-10T10:04:16;101473.00;;;18.61
64488;BMP280;50864;45.050;39.014;2022-12-10T10:06:42;101473.47;;;18.72
64488;BMP280;50864;45.050;39.014;2022-12-10T10:09:11;101467.53;;;18.78
64488;BMP280;50864;45.050;39.014;2022-12-10T10:11:39;101455.66;;;18.91
64488;BMP280;50864;45.050;39.014;2022-12-10T10:14:12;101457.59;;;18.91
64488;BMP280;50864;45.050;39.014;2022-12-10T10:16:43;101459.97;;;18.92
64488;BMP280;50864;45.050;39.014;2022-12-10T10:19:37;101453.91;;;18.95
64488;BMP280;50864;45.050;39.014;2022-12-10T10:22:05;101450.25;;;18.91
64488;BMP280;50864;45.050;39.014;2022-12-10T10:24:42;101445.50;;;18.88
64488;BMP280;50864;45.050;39.014;2022-12-10T10:27:33;101443.84;;;18.96
64488;BMP280;50864;45.050;39.014;2022-12-10T10:30:00;101439.38;;;18.91
64488;BMP280;50864;45.050;39.014;2022-12-10T10:32:44;101445.19;;;18.90
64488;BMP280;50864;45.050;39.014;2022-12-10T10:37:56;101441.41;;;19.11
64488;BMP280;50864;45.050;39.014;2022-12-10T10:40:30;101442.81;;;19.09
64488;BMP280;50864;45.050;39.014;2022-12-10T10:42:58;101439.16;;;19.13
64488;BMP280;50864;45.050;39.014;2022-12-10T10:45:42;101444.44;;;19.10
64488;BMP280;50864;45.050;39.014;2022-12-10T10:48:18;101443.63;;;19.09
64488;BMP280;50864;45.050;39.014;2022-12-10T10:50:47;101436.22;;;19.19
64488;BMP280;50864;45.050;39.014;2022-12-10T10:53:26;101443.25;;;19.20
64488;BMP280;50864;45.050;39.014;2022-12-10T10:56:17;101436.44;;;19.13
64488;BMP280;50864;45.050;39.014;2022-12-10T11:01:13;101432.09;;;19.21
64488;BMP280;50864;45.050;39.014;2022-12-10T11:03:46;101429.22;;;19.18
64488;BMP280;50864;45.050;39.014;2022-12-10T11:06:13;101426.06;;;19.16
64488;BMP280;50864;45.050;39.014;2022-12-10T11:08:41;101422.41;;;19.11
64488;BMP280;50864;45.050;39.014;2022-12-10T11:11:33;101413.16;;;19.12
64488;BMP280;50864;45.050;39.014;2022-12-10T11:14:39;101415.44;;;19.02
64488;BMP280;50864;45.050;39.014;2022-12-10T11:19:43;101410.94;;;18.77
64488;BMP280;50864;45.050;39.014;2022-12-10T11:22:30;101409.94;;;18.81
64488;BMP280;50864;45.050;39.014;2022-12-10T11:25:00;101410.88;;;18.85
64488;BMP280;50864;45.050;39.014;2022-12-10T11:35:49;101403.78;;;19.01
64488;BMP280;50864;45.050;39.014;2022-12-10T11:38:30;101393.44;;;18.95
64488;BMP280;50864;45.050;39.014;2022-12-10T11:41:02;101388.53;;;18.88
64488;BMP280;50864;45.050;39.014;2022-12-10T11:46:39;101394.75;;;18.89
64488;BMP280;50864;45.050;39.014;2022-12-10T11:57:46;101382.00;;;18.89
64488;BMP280;50864;45.050;39.014;2022-12-10T12:00:21;101377.69;;;18.88
64488;BMP280;50864;45.050;39.014;2022-12-10T12:03:09;101380.25;;;18.85
64488;BMP280;50864;45.050;39.014;2022-12-10T12:14:13;101370.38;;;18.80
64488;BMP280;50864;45.050;39.014;2022-12-10T12:16:54;101361.91;;;18.82
64488;BMP280;50864;45.050;39.014;2022-12-10T12:19:34;101368.97;;;18.74
64488;BMP280;50864;45.050;39.014;2022-12-10T12:22:11;101370.59;;;18.67
64488;BMP280;50864;45.050;39.014;2022-12-10T12:24:41;101368.09;;;18.61
64488;BMP280;50864;45.050;39.014;2022-12-10T12:27:37;101365.22;;;18.58
64488;BMP280;50864;45.050;39.014;2022-12-10T12:30:10;101364.72;;;18.56
64488;BMP280;50864;45.050;39.014;2022-12-10T12:35:23;101364.47;;;18.49
64488;BMP280;50864;45.050;39.014;2022-12-10T12:37:59;101362.22;;;18.51
64488;BMP280;50864;45.050;39.014;2022-12-10T12:40:41;101370.00;;;18.52
64488;BMP280;50864;45.050;39.014;2022-12-10T12:43:13;101373.06;;;18.51
64488;BMP280;50864;45.050;39.014;2022-12-10T12:45:48;101374.50;;;18.48
64488;BMP280;50864;45.050;39.014;2022-12-10T12:51:14;101384.41;;;18.44
64488;BMP280;50864;45.050;39.014;2022-12-10T12:53:43;101378.69;;;18.37
64488;BMP280;50864;45.050;39.014;2022-12-10T12:59:09;101372.00;;;18.26
64488;BMP280;50864;45.050;39.014;2022-12-10T13:01:54;101376.50;;;18.14
64488;BMP280;50864;45.050;39.014;2022-12-10T13:04:22;101382.41;;;17.98
64488;BMP280;50864;45.050;39.014;2022-12-10T13:09:45;101381.12;;;17.70
64488;BMP280;50864;45.050;39.014;2022-12-10T13:20:44;101375.47;;;17.06
64488;BMP280;50864;45.050;39.014;2022-12-10T13:31:21;101382.25;;;16.56
64488;BMP280;50864;45.050;39.014;2022-12-10T13:41:34;101376.91;;;15.98
64488;BMP280;50864;45.050;39.014;2022-12-10T13:50:06;101372.34;;;15.62
64488;BMP280;50864;45.050;39.014;2022-12-10T13:52:44;101375.84;;;15.49
64488;BMP280;50864;45.050;39.014;2022-12-10T13:55:23;101377.44;;;15.37
64488;BMP280;50864;45.050;39.014;2022-12-10T13:58:25;101381.47;;;15.26
64488;BMP280;50864;45.050;39.014;2022-12-10T14:08:39;101376.03;;;14.85
64488;BMP280;50864;45.050;39.014;2022-12-10T14:11:22;101366.78;;;14.77
64488;BMP280;50864;45.050;39.014;2022-12-10T14:13:53;101368.75;;;14.72
64488;BMP280;50864;45.050;39.014;2022-12-10T14:16:22;101369.13;;;14.65
64488;BMP280;50864;45.050;39.014;2022-12-10T14:18:58;101369.22;;;14.60
64488;BMP280;50864;45.050;39.014;2022-12-10T14:21:25;101363.59;;;14.56
64488;BMP280;50864;45.050;39.014;2022-12-10T14:23:51;101375.84;;;14.49
64488;BMP280;50864;45.050;39.014;2022-12-10T14:26:21;101358.69;;;14.45
64488;BMP280;50864;45.050;39.014;2022-12-10T14:28:49;101361.44;;;14.40
64488;BMP280;50864;45.050;39.014;2022-12-10T14:31:42;101367.00;;;14.30
64488;BMP280;50864;45.050;39.014;2022-12-10T14:34:08;101363.09;;;14.22
64488;BMP280;50864;45.050;39.014;2022-12-10T14:36:38;101358.69;;;14.12
64488;BMP280;50864;45.050;39.014;2022-12-10T14:39:34;101361.44;;;14.07
64488;BMP280;50864;45.050;39.014;2022-12-10T14:42:05;101361.88;;;13.96
64488;BMP280;50864;45.050;39.014;2022-12-10T14:44:34;101354.25;;;13.84
64488;BMP280;50864;45.050;39.014;2022-12-10T14:47:16;101358.66;;;13.75
64488;BMP280;50864;45.050;39.014;2022-12-10T14:49:48;101358.50;;;13.66
64488;BMP280;50864;45.050;39.014;2022-12-10T14:52:17;101366.06;;;13.64
64488;BMP280;50864;45.050;39.014;2022-12-10T14:54:44;101359.84;;;13.69
64488;BMP280;50864;45.050;39.014;2022-12-10T14:57:32;101351.19;;;13.72
64488;BMP280;50864;45.050;39.014;2022-12-10T15:00:19;101361.41;;;13.70
64488;BMP280;50864;45.050;39.014;2022-12-10T15:02:50;101362.56;;;13.64
64488;BMP280;50864;45.050;39.014;2022-12-10T15:05:21;101362.66;;;13.59
64488;BMP280;50864;45.050;39.014;2022-12-10T15:07:54;101367.53;;;13.57
64488;BMP280;50864;45.050;39.014;2022-12-10T15:10:41;101360.56;;;13.51
64488;BMP280;50864;45.050;39.014;2022-12-10T15:13:37;101363.13;;;13.42
64488;BMP280;50864;45.050;39.014;2022-12-10T15:16:04;101365.44;;;13.30
64488;BMP280;50864;45.050;39.014;2022-12-10T15:21:14;101366.94;;;13.12
64488;BMP280;50864;45.050;39.014;2022-12-10T15:23:44;101365.97;;;13.03
64488;BMP280;50864;45.050;39.014;2022-12-10T15:26:18;101363.91;;;12.95
64488;BMP280;50864;45.050;39.014;2022-12-10T15:28:46;101359.94;;;12.88
64488;BMP280;50864;45.050;39.014;2022-12-10T15:33:57;101363.06;;;12.71
64488;BMP280;50864;45.050;39.014;2022-12-10T15:36:37;101356.97;;;12.60
64488;BMP280;50864;45.050;39.014;2022-12-10T15:39:26;101358.94;;;12.45
64488;BMP280;50864;45.050;39.014;2022-12-10T15:42:00;101357.69;;;12.37
64488;BMP280;50864;45.050;39.014;2022-12-10T15:47:18;101356.97;;;12.26
64488;BMP280;50864;45.050;39.014;2022-12-10T15:49:46;101359.69;;;12.21
64488;BMP280;50864;45.050;39.014;2022-12-10T15:52:13;101372.63;;;12.14
64488;BMP280;50864;45.050;39.014;2022-12-10T15:54:41;101369.41;;;12.12
64488;BMP280;50864;45.050;39.014;2022-12-10T15:57:16;101371.03;;;12.08
64488;BMP280;50864;45.050;39.014;2022-12-10T15:59:44;101376.97;;;12.05
64488;BMP280;50864;45.050;39.014;2022-12-10T16:05:11;101366.78;;;11.97
64488;BMP280;50864;45.050;39.014;2022-12-10T16:07:38;101367.59;;;11.98
64488;BMP280;50864;45.050;39.014;2022-12-10T16:10:04;101373.53;;;11.94
64488;BMP280;50864;45.050;39.014;2022-12-10T16:12:31;101373.03;;;11.92
64488;BMP280;50864;45.050;39.014;2022-12-10T16:15:00;101377.03;;;11.90
64488;BMP280;50864;45.050;39.014;2022-12-10T16:17:27;101378.94;;;11.84